Time;durP1;ratioP1;P1;durP2;ratioP2;P2;SDS_P1;SDS_P2;PMS_P1;PMS_P2;Temp;Humidity;BMP_temperature;BMP_pressure;BME280_temperature;BME280_humidity;BME280_pressure;Samples;Min_cycle;Max_cycle;Signal;HPM_P1;HPM_P2
2023/04/05 00:00:53;;;;;;;;;16.00;9.33;;;;;;;;6336041;22;45304;-83
2023/04/05 00:03:18;;;;;;;;;12.00;10.00;;;;;;;;6333805;22;45432;-83
2023/04/05 00:05:44;;;;;;;;;16.50;10.00;;;;;;;;6335710;22;45254;-83
2023/04/05 00:08:17;;;;;;;;;10.25;9.75;;;;;;;;6336038;22;45259;-83
2023/04/05 00:10:42;;;;;;;;;13.75;10.75;;;;;;;;6334945;22;45304;-83
2023/04/05 00:13:07;;;;;;;;;17.33;8.00;;;;;;;;6336203;22;45359;-83
2023/04/05 00:15:33;;;;;;;;;14.50;8.75;;;;;;;;6335594;22;45338;-84
2023/04/05 00:17:59;;;;;;;;;17.67;13.00;;;;;;;;6333764;22;45535;-84
2023/04/05 00:20:24;;;;;;;;;16.75;12.00;;;;;;;;6335443;22;45212;-84
2023/04/05 00:22:49;;;;;;;;;19.00;12.00;;;;;;;;6335858;22;45332;-84
2023/04/05 00:25:15;;;;;;;;;21.00;16.50;;;;;;;;6334876;22;46233;-84
2023/04/05 00:27:42;;;;;;;;;19.50;16.00;;;;;;;;6334055;22;45254;-84
2023/04/05 00:30:07;;;;;;;;;16.75;15.75;;;;;;;;6335765;22;45307;-83
2023/04/05 00:32:32;;;;;;;;;24.50;16.25;;;;;;;;6333879;22;45303;-83
2023/04/05 00:34:57;;;;;;;;;17.67;13.00;;;;;;;;6335167;22;46496;-84
2023/04/05 00:37:23;;;;;;;;;24.33;18.33;;;;;;;;6335046;22;45268;-83
2023/04/05 00:39:48;;;;;;;;;31.00;18.67;;;;;;;;6335485;22;45275;-83
2023/04/05 00:42:13;;;;;;;;;20.33;18.67;;;;;;;;6335298;22;45494;-83
2023/04/05 00:44:38;;;;;;;;;28.00;17.00;;;;;;;;6335019;22;45672;-83
2023/04/05 00:47:05;;;;;;;;;28.67;17.00;;;;;;;;6336552;22;45379;-83
2023/04/05 00:49:31;;;;;;;;;25.50;22.00;;;;;;;;6336588;22;45251;-83
2023/04/05 00:51:56;;;;;;;;;23.00;17.00;;;;;;;;6336642;22;45348;-83
2023/04/05 00:54:22;;;;;;;;;24.75;21.50;;;;;;;;6334599;22;46006;-83
2023/04/05 00:56:47;;;;;;;;;24.25;21.75;;;;;;;;6336269;22;45221;-83
2023/04/05 00:59:13;;;;;;;;;20.67;19.67;;;;;;;;6337154;22;45258;-84
2023/04/05 01:01:39;;;;;;;;;35.33;20.33;;;;;;;;6337216;22;45267;-83
2023/04/05 01:04:06;;;;;;;;;28.00;20.75;;;;;;;;6336544;22;46358;-83
2023/04/05 01:06:57;;;;;;;;;27.00;21.00;;;;;;;;6334708;22;45905;-83
2023/04/05 01:09:35;;;;;;;;;34.00;21.75;;;;;;;;6209060;22;45472;-83
2023/04/05 01:12:03;;;;;;;;;27.00;19.75;;;;;;;;6209371;22;45549;-83
2023/04/05 01:14:28;;;;;;;;;22.25;20.25;;;;;;;;6209568;22;48189;-83
2023/04/05 01:16:57;;;;;;;;;25.67;22.67;;;;;;;;6210073;22;45343;-83
2023/04/05 01:19:25;;;;;;;;;24.50;18.50;;;;;;;;6209275;22;45298;-83
2023/04/05 01:21:51;;;;;;;;;27.75;19.00;;;;;;;;6209930;22;45356;-84
2023/04/05 01:24:31;;;;;;;;;26.33;18.67;;;;;;;;6210181;22;46350;-83
2023/04/05 01:27:15;;;;;;;;;23.25;18.25;;;;;;;;6209514;22;45406;-83
2023/04/05 01:29:45;;;;;;;;;19.75;12.50;;;;;;;;6210265;22;45422;-83
2023/04/05 01:32:11;;;;;;;;;25.00;20.00;;;;;;;;6209989;22;45489;-83
2023/04/05 01:34:41;;;;;;;;;29.00;21.00;;;;;;;;6209756;22;45330;-83
2023/04/05 01:37:07;;;;;;;;;20.50;19.50;;;;;;;;6209129;22;45390;-84
2023/04/05 01:39:34;;;;;;;;;16.25;15.00;;;;;;;;6210269;22;45516;-84
2023/04/05 01:42:00;;;;;;;;;30.25;19.00;;;;;;;;6210082;22;45474;-84
2023/04/05 01:44:25;;;;;;;;;20.00;19.00;;;;;;;;6184175;22;46526;-84
2023/04/05 01:46:50;;;;;;;;;28.00;19.75;;;;;;;;6307913;22;45246;-84
2023/04/05 01:49:16;;;;;;;;;20.33;17.33;;;;;;;;6336923;22;45251;-84
2023/04/05 01:51:41;;;;;;;;;22.67;17.67;;;;;;;;6336644;22;45781;-84
2023/04/05 01:54:07;;;;;;;;;21.50;18.00;;;;;;;;6335828;22;45934;-83
2023/04/05 01:56:32;;;;;;;;;22.00;19.50;;;;;;;;6337001;22;45243;-84
2023/04/05 01:58:57;;;;;;;;;23.67;19.00;;;;;;;;6334372;22;45349;-84
2023/04/05 02:01:23;;;;;;;;;26.00;17.33;;;;;;;;6336748;22;45399;-84
2023/04/05 02:03:48;;;;;;;;;23.75;17.75;;;;;;;;6336944;22;45225;-84
2023/04/05 02:06:13;;;;;;;;;27.67;18.67;;;;;;;;6335850;22;45660;-84
2023/04/05 02:08:39;;;;;;;;;27.33;19.00;;;;;;;;6335133;22;45394;-84
2023/04/05 02:11:04;;;;;;;;;21.00;19.33;;;;;;;;6336928;22;45385;-84
2023/04/05 02:13:29;;;;;;;;;30.25;22.50;;;;;;;;6336149;22;46230;-84
2023/04/05 02:15:55;;;;;;;;;32.25;19.25;;;;;;;;6334658;22;45287;-84
2023/04/05 02:18:28;;;;;;;;;17.00;15.00;;;;;;;;6336307;22;45330;-84
2023/04/05 02:20:59;;;;;;;;;31.50;15.50;;;;;;;;6336248;22;45335;-83
2023/04/05 02:23:26;;;;;;;;;21.00;16.50;;;;;;;;6336054;22;46162;-84
2023/04/05 02:25:51;;;;;;;;;18.00;17.25;;;;;;;;6334691;22;45591;-84
2023/04/05 02:28:17;;;;;;;;;21.00;15.00;;;;;;;;6337171;22;45209;-84
2023/04/05 02:30:42;;;;;;;;;26.67;16.33;;;;;;;;6336467;22;45465;-84
2023/04/05 02:33:09;;;;;;;;;18.50;17.25;;;;;;;;6336336;22;47593;-84
2023/04/05 02:35:34;;;;;;;;;23.25;14.75;;;;;;;;6334143;22;45404;-83
2023/04/05 02:38:00;;;;;;;;;25.75;18.50;;;;;;;;6336364;22;45318;-84
2023/04/05 02:40:26;;;;;;;;;19.75;15.25;;;;;;;;6336287;22;45372;-83
2023/04/05 02:42:51;;;;;;;;;25.33;17.00;;;;;;;;6336450;22;46173;-84
2023/04/05 02:45:16;;;;;;;;;25.67;23.00;;;;;;;;6336364;22;45382;-84
2023/04/05 02:47:41;;;;;;;;;29.00;21.00;;;;;;;;6337219;22;45286;-83
2023/04/05 02:50:07;;;;;;;;;18.00;14.00;;;;;;;;6335502;22;45418;-83
2023/04/05 02:52:33;;;;;;;;;17.25;13.75;;;;;;;;6336147;22;45325;-84
2023/04/05 02:54:58;;;;;;;;;22.00;15.00;;;;;;;;6308904;22;45307;-84
2023/04/05 02:57:23;;;;;;;;;26.67;21.67;;;;;;;;6308639;22;45272;-84
2023/04/05 02:59:48;;;;;;;;;15.33;15.33;;;;;;;;6308819;22;45309;-83
2023/04/05 03:02:13;;;;;;;;;24.33;19.67;;;;;;;;6308009;22;46331;-84
2023/04/05 03:04:39;;;;;;;;;20.33;15.00;;;;;;;;6308226;22;45812;-84
2023/04/05 03:07:05;;;;;;;;;28.50;18.25;;;;;;;;6336535;22;45504;-84
2023/04/05 03:09:32;;;;;;;;;25.33;18.33;;;;;;;;6336085;22;45204;-84
2023/04/05 03:11:58;;;;;;;;;22.25;17.50;;;;;;;;6336473;22;46329;-84
2023/04/05 03:14:23;;;;;;;;;19.00;17.00;;;;;;;;6336306;22;45759;-84
2023/04/05 03:16:49;;;;;;;;;21.33;15.00;;;;;;;;6336335;22;45451;-84
2023/04/05 03:19:15;;;;;;;;;30.75;15.00;;;;;;;;6336174;22;45332;-85
2023/04/05 03:21:41;;;;;;;;;18.75;13.75;;;;;;;;6335720;22;46215;-83
2023/04/05 03:24:06;;;;;;;;;18.67;14.00;;;;;;;;6335922;22;45340;-84
2023/04/05 03:26:32;;;;;;;;;17.00;14.33;;;;;;;;6336625;22;45197;-84
2023/04/05 03:28:57;;;;;;;;;17.25;12.50;;;;;;;;6336650;22;45213;-84
2023/04/05 03:31:22;;;;;;;;;19.33;18.00;;;;;;;;6335729;22;46205;-84
2023/04/05 03:33:47;;;;;;;;;20.00;16.33;;;;;;;;6335592;22;45309;-84
2023/04/05 03:36:15;;;;;;;;;21.67;17.33;;;;;;;;6335898;22;45313;-84
2023/04/05 03:38:42;;;;;;;;;21.25;15.00;;;;;;;;6336221;22;45172;-84
2023/04/05 03:41:07;;;;;;;;;25.75;16.00;;;;;;;;6336266;22;46555;-84
2023/04/05 03:43:33;;;;;;;;;23.67;15.67;;;;;;;;6334466;22;45343;-84
2023/04/05 03:45:58;;;;;;;;;20.33;12.33;;;;;;;;6335863;22;45270;-84
2023/04/05 03:48:23;;;;;;;;;33.00;21.75;;;;;;;;6336306;22;45200;-84
2023/04/05 03:50:48;;;;;;;;;23.67;17.67;;;;;;;;6336076;22;45334;-84
2023/04/05 03:53:17;;;;;;;;;28.00;19.33;;;;;;;;6336014;22;45443;-85
2023/04/05 03:55:48;;;;;;;;;20.00;15.00;;;;;;;;6334700;22;45325;-84
2023/04/05 03:58:13;;;;;;;;;22.00;18.25;;;;;;;;6334343;22;45277;-84
2023/04/05 04:00:38;;;;;;;;;26.00;17.00;;;;;;;;6333842;22;46455;-84
2023/04/05 04:03:03;;;;;;;;;25.67;18.00;;;;;;;;6333912;22;45295;-84
2023/04/05 04:05:28;;;;;;;;;27.67;17.67;;;;;;;;6335976;22;45207;-84
2023/04/05 04:07:54;;;;;;;;;32.00;19.67;;;;;;;;6335850;22;45205;-84
2023/04/05 04:10:19;;;;;;;;;23.00;19.75;;;;;;;;6336500;22;45361;-85
2023/04/05 04:12:45;;;;;;;;;20.00;18.00;;;;;;;;6335710;22;45442;-84
2023/04/05 04:15:10;;;;;;;;;24.75;16.50;;;;;;;;6337007;22;45200;-84
2023/04/05 04:17:36;;;;;;;;;25.50;15.75;;;;;;;;6336315;22;45408;-83
2023/04/05 04:20:07;;;;;;;;;21.00;14.75;;;;;;;;6336001;22;46247;-85
2023/04/05 04:22:32;;;;;;;;;21.25;14.50;;;;;;;;6336638;22;45162;-84
2023/04/05 04:25:01;;;;;;;;;23.00;17.67;;;;;;;;6335086;22;45230;-84
2023/04/05 04:27:27;;;;;;;;;25.25;17.75;;;;;;;;6337168;22;45446;-84
2023/04/05 04:30:00;;;;;;;;;25.00;15.00;;;;;;;;6337072;22;46402;-85
2023/04/05 04:32:50;;;;;;;;;23.25;17.25;;;;;;;;6336967;22;45527;-84
2023/04/05 04:35:13;;;;;;;;;31.50;19.50;;;;;;;;6337533;22;45375;-85
2023/04/05 04:37:46;;;;;;;;;23.00;14.00;;;;;;;;6337170;22;45368;-85
2023/04/05 04:40:16;;;;;;;;;30.50;19.00;;;;;;;;6336484;22;46219;-85
2023/04/05 04:42:47;;;;;;;;;22.50;17.00;;;;;;;;6336719;22;45845;-85
2023/04/05 04:45:15;;;;;;;;;36.50;21.75;;;;;;;;6336646;22;45300;-85
2023/04/05 04:47:41;;;;;;;;;29.75;19.00;;;;;;;;6338269;22;45411;-85
2023/04/05 04:50:06;;;;;;;;;16.50;9.50;;;;;;;;6337143;22;45264;-86
2023/04/05 04:52:32;;;;;;;;;17.50;17.00;;;;;;;;6335223;22;45404;-85
2023/04/05 04:54:57;;;;;;;;;28.50;22.50;;;;;;;;6337420;22;45261;-85
2023/04/05 04:57:24;;;;;;;;;22.25;15.75;;;;;;;;6337747;22;45271;-86
2023/04/05 04:59:49;;;;;;;;;25.00;16.00;;;;;;;;6343022;22;46070;-86
2023/04/05 05:02:15;;;;;;;;;27.33;16.67;;;;;;;;6343095;22;45263;-86
2023/04/05 05:04:41;;;;;;;;;21.75;17.50;;;;;;;;6340349;22;45331;-86
2023/04/05 05:07:06;;;;;;;;;28.25;20.00;;;;;;;;6337343;22;45275;-86
2023/04/05 05:09:31;;;;;;;;;30.00;21.33;;;;;;;;6337412;22;45284;-85
2023/04/05 05:11:58;;;;;;;;;29.00;19.67;;;;;;;;6337462;22;45381;-85
2023/04/05 05:14:23;;;;;;;;;23.75;20.75;;;;;;;;6335956;22;45289;-86
2023/04/05 05:16:48;;;;;;;;;22.33;19.00;;;;;;;;6337933;22;45319;-86
2023/04/05 05:19:13;;;;;;;;;24.33;17.00;;;;;;;;6337404;22;46227;-84
2023/04/05 05:21:39;;;;;;;;;21.00;17.67;;;;;;;;6337367;22;45290;-84
2023/04/05 05:24:06;;;;;;;;;27.00;22.00;;;;;;;;6337648;22;45260;-84
2023/04/05 05:26:31;;;;;;;;;28.00;20.00;;;;;;;;6337582;22;45230;-84
2023/04/05 05:28:59;;;;;;;;;30.00;18.33;;;;;;;;6336280;22;45304;-84
2023/04/05 05:31:25;;;;;;;;;34.75;21.25;;;;;;;;6337010;22;45905;-84
2023/04/05 05:33:50;;;;;;;;;34.75;19.50;;;;;;;;6337123;22;45410;-83
2023/04/05 05:36:15;;;;;;;;;28.75;21.50;;;;;;;;6336638;22;45293;-83
2023/04/05 05:38:42;;;;;;;;;22.00;16.00;;;;;;;;6336499;22;46221;-83
2023/04/05 05:41:07;;;;;;;;;34.25;20.75;;;;;;;;6337025;22;45300;-83
2023/04/05 05:43:32;;;;;;;;;23.67;16.33;;;;;;;;6336547;22;45271;-82
2023/04/05 05:45:59;;;;;;;;;29.00;25.00;;;;;;;;6337384;22;45406;-82
2023/04/05 05:48:24;;;;;;;;;34.75;23.75;;;;;;;;6336600;22;46820;-82
2023/04/05 05:50:50;;;;;;;;;37.00;26.33;;;;;;;;6336565;22;45220;-82
2023/04/05 05:53:15;;;;;;;;;36.33;21.67;;;;;;;;6336601;22;45259;-82
2023/04/05 05:55:41;;;;;;;;;36.33;19.00;;;;;;;;6336418;22;45260;-83
2023/04/05 05:58:07;;;;;;;;;29.25;19.50;;;;;;;;6335931;22;46183;-81
2023/04/05 06:00:32;;;;;;;;;26.67;23.67;;;;;;;;6336746;22;45294;-83
2023/04/05 06:02:57;;;;;;;;;31.33;24.33;;;;;;;;6336673;22;45187;-82
2023/04/05 06:05:23;;;;;;;;;24.75;22.25;;;;;;;;6336425;22;45462;-84
2023/04/05 06:07:48;;;;;;;;;22.33;20.67;;;;;;;;6336794;22;46588;-82
2023/04/05 06:10:14;;;;;;;;;29.00;23.00;;;;;;;;6336686;22;45438;-83
2023/04/05 06:12:39;;;;;;;;;31.00;23.00;;;;;;;;6336659;22;45371;-83
2023/04/05 06:15:05;;;;;;;;;26.00;19.25;;;;;;;;6336914;22;45345;-83
2023/04/05 06:17:30;;;;;;;;;21.00;19.50;;;;;;;;6336379;22;45287;-81
2023/04/05 06:19:55;;;;;;;;;23.67;20.00;;;;;;;;6336975;22;45319;-83
2023/04/05 06:22:22;;;;;;;;;32.67;25.00;;;;;;;;6337265;22;45291;-83
2023/04/05 06:24:47;;;;;;;;;22.50;20.00;;;;;;;;6336297;22;45283;-82
2023/04/05 06:27:13;;;;;;;;;33.33;25.33;;;;;;;;6336567;22;45314;-82
2023/04/05 06:29:38;;;;;;;;;27.25;23.25;;;;;;;;6336429;22;45294;-82
2023/04/05 06:32:03;;;;;;;;;30.33;23.00;;;;;;;;6337329;22;45239;-83
2023/04/05 06:34:29;;;;;;;;;21.33;21.00;;;;;;;;6337451;22;45429;-83
2023/04/05 06:36:55;;;;;;;;;23.25;23.00;;;;;;;;6337019;22;45304;-82
2023/04/05 06:39:20;;;;;;;;;41.00;22.50;;;;;;;;6335461;22;45243;-82
2023/04/05 06:41:45;;;;;;;;;39.75;22.50;;;;;;;;6335540;22;45631;-81
2023/04/05 06:44:10;;;;;;;;;39.00;27.33;;;;;;;;6335768;22;45774;-82
2023/04/05 06:46:36;;;;;;;;;35.67;27.00;;;;;;;;6336515;22;46416;-83
2023/04/05 06:49:01;;;;;;;;;32.33;25.00;;;;;;;;6336197;22;45214;-83
2023/04/05 06:51:27;;;;;;;;;32.33;26.00;;;;;;;;6334866;22;45310;-83
2023/04/05 06:53:53;;;;;;;;;36.50;27.00;;;;;;;;6337230;22;45270;-84
2023/04/05 06:56:18;;;;;;;;;28.00;25.00;;;;;;;;6335248;22;45340;-84
2023/04/05 06:58:43;;;;;;;;;33.00;23.67;;;;;;;;6334320;22;45341;-83
2023/04/05 07:01:08;;;;;;;;;32.00;23.00;;;;;;;;6336982;22;45190;-84
2023/04/05 07:03:33;;;;;;;;;37.33;25.00;;;;;;;;6336765;22;45345;-83
2023/04/05 07:05:59;;;;;;;;;32.00;26.33;;;;;;;;6335845;22;45236;-84
2023/04/05 07:08:25;;;;;;;;;26.25;20.25;;;;;;;;6336514;22;45468;-83
2023/04/05 07:10:51;;;;;;;;;35.25;25.75;;;;;;;;6336678;22;45217;-84
2023/04/05 07:13:17;;;;;;;;;26.50;23.50;;;;;;;;6337427;22;45333;-84
2023/04/05 07:15:42;;;;;;;;;29.00;25.25;;;;;;;;6337060;22;45941;-84
2023/04/05 07:18:08;;;;;;;;;18.25;18.25;;;;;;;;6337129;22;45263;-84
2023/04/05 07:20:33;;;;;;;;;17.00;8.67;;;;;;;;6337098;22;45206;-83
2023/04/05 07:22:58;;;;;;;;;28.33;23.00;;;;;;;;6337062;22;45422;-83
2023/04/05 07:25:23;;;;;;;;;36.33;24.67;;;;;;;;6337005;22;45261;-83
2023/04/05 07:27:49;;;;;;;;;30.67;23.00;;;;;;;;6336093;22;45352;-83
2023/04/05 07:30:14;;;;;;;;;23.00;19.67;;;;;;;;6336977;22;45345;-83
2023/04/05 07:32:39;;;;;;;;;29.33;18.00;;;;;;;;6337728;22;45256;-83
2023/04/05 07:35:05;;;;;;;;;37.50;25.75;;;;;;;;6336387;22;46274;-83
2023/04/05 07:37:30;;;;;;;;;33.25;25.00;;;;;;;;6336684;22;45702;-83
2023/04/05 07:39:57;;;;;;;;;26.67;20.00;;;;;;;;6335149;22;45319;-83
2023/04/05 07:42:22;;;;;;;;;31.00;19.25;;;;;;;;6336646;22;45192;-83
2023/04/05 07:44:47;;;;;;;;;28.50;24.00;;;;;;;;6332376;22;45916;-83
2023/04/05 07:47:13;;;;;;;;;23.33;23.33;;;;;;;;6335079;22;45418;-85
2023/04/05 07:49:38;;;;;;;;;28.33;17.67;;;;;;;;6334510;22;45634;-84
2023/04/05 07:52:03;;;;;;;;;30.00;21.33;;;;;;;;6336093;22;45689;-83
2023/04/05 07:54:30;;;;;;;;;42.33;25.33;;;;;;;;6335054;22;46571;-80
2023/04/05 07:56:56;;;;;;;;;32.25;25.00;;;;;;;;6334713;22;45869;-80
2023/04/05 07:59:22;;;;;;;;;27.25;22.25;;;;;;;;6334835;22;45698;-80
2023/04/05 08:01:47;;;;;;;;;30.67;23.67;;;;;;;;6335427;22;45295;-79
2023/04/05 08:04:12;;;;;;;;;28.00;19.33;;;;;;;;6334271;22;45566;-79
2023/04/05 08:06:37;;;;;;;;;30.33;23.33;;;;;;;;6334340;22;45408;-80
2023/04/05 08:09:04;;;;;;;;;37.00;26.67;;;;;;;;6334723;22;45346;-79
2023/04/05 08:11:30;;;;;;;;;35.25;24.50;;;;;;;;6334658;22;45272;-80
2023/04/05 08:13:56;;;;;;;;;26.50;23.00;;;;;;;;6334895;22;45389;-80
2023/04/05 08:16:21;;;;;;;;;31.00;24.00;;;;;;;;6334495;22;45616;-81
2023/04/05 08:18:46;;;;;;;;;24.33;23.33;;;;;;;;6334980;22;45464;-79
2023/04/05 08:21:11;;;;;;;;;32.67;26.33;;;;;;;;6335254;22;45185;-80
2023/04/05 08:23:37;;;;;;;;;31.00;27.67;;;;;;;;6333721;22;45284;-79
2023/04/05 08:26:02;;;;;;;;;29.25;25.00;;;;;;;;6334337;22;45287;-80
2023/04/05 08:28:28;;;;;;;;;27.25;21.00;;;;;;;;6334563;22;45295;-78
2023/04/05 08:30:54;;;;;;;;;24.00;20.33;;;;;;;;6334113;22;45283;-80
2023/04/05 08:33:19;;;;;;;;;28.00;23.25;;;;;;;;6334820;22;46263;-80
2023/04/05 08:35:45;;;;;;;;;33.67;20.67;;;;;;;;6334680;22;45348;-80
2023/04/05 08:38:11;;;;;;;;;25.50;23.50;;;;;;;;6334737;22;45320;-81
2023/04/05 08:40:41;;;;;;;;;33.25;23.75;;;;;;;;6335147;22;45418;-80
2023/04/05 08:43:10;;;;;;;;;20.75;18.00;;;;;;;;6334130;22;45590;-81
2023/04/05 08:45:40;;;;;;;;;21.25;18.25;;;;;;;;6334905;22;45860;-81
2023/04/05 08:48:05;;;;;;;;;21.75;17.00;;;;;;;;6335155;22;45382;-79
2023/04/05 08:50:31;;;;;;;;;32.00;23.00;;;;;;;;6334425;22;45271;-79
2023/04/05 08:52:56;;;;;;;;;35.67;27.00;;;;;;;;6333989;22;46309;-79
2023/04/05 08:55:21;;;;;;;;;26.67;20.33;;;;;;;;6334286;22;45228;-79
2023/04/05 08:57:49;;;;;;;;;26.75;22.00;;;;;;;;6334869;22;45271;-79
2023/04/05 09:00:15;;;;;;;;;34.50;25.00;;;;;;;;6334242;22;45392;-79
2023/04/05 09:02:42;;;;;;;;;31.00;24.00;;;;;;;;6334134;22;46437;-80
2023/04/05 09:05:08;;;;;;;;;24.75;18.75;;;;;;;;6334751;22;45790;-79
2023/04/05 09:07:34;;;;;;;;;32.50;21.25;;;;;;;;6334643;22;45239;-79
2023/04/05 09:10:00;;;;;;;;;27.25;15.00;;;;;;;;6335713;22;45294;-79
2023/04/05 09:12:25;;;;;;;;;23.75;17.25;;;;;;;;6333874;22;47572;-79
2023/04/05 09:14:51;;;;;;;;;26.75;19.00;;;;;;;;6335903;22;45426;-79
2023/04/05 09:17:18;;;;;;;;;27.00;20.00;;;;;;;;6335547;22;45232;-79
2023/04/05 09:19:43;;;;;;;;;26.00;19.50;;;;;;;;6335650;22;45314;-79
2023/04/05 09:22:09;;;;;;;;;30.00;21.00;;;;;;;;6335401;22;46189;-79
2023/04/05 09:24:41;;;;;;;;;23.75;19.75;;;;;;;;6336123;22;45264;-79
2023/04/05 09:27:08;;;;;;;;;26.75;20.25;;;;;;;;6335971;22;45322;-80
2023/04/05 09:29:34;;;;;;;;;21.50;15.25;;;;;;;;6336319;22;45462;-79
2023/04/05 09:32:00;;;;;;;;;22.50;18.25;;;;;;;;6336009;22;46374;-80
2023/04/05 09:34:25;;;;;;;;;29.75;21.00;;;;;;;;6333396;22;45403;-80
2023/04/05 09:36:51;;;;;;;;;25.67;18.00;;;;;;;;6336260;22;45332;-79
2023/04/05 09:39:21;;;;;;;;;21.25;15.50;;;;;;;;6335784;22;45420;-80
2023/04/05 09:42:03;;;;;;;;;27.50;17.75;;;;;;;;6335540;22;46249;-79
2023/04/05 09:44:46;;;;;;;;;20.50;17.00;;;;;;;;6334991;22;45813;-80
2023/04/05 09:47:16;;;;;;;;;30.75;22.25;;;;;;;;6336499;22;45340;-80
2023/04/05 09:49:41;;;;;;;;;28.00;20.25;;;;;;;;6335150;22;45522;-79
2023/04/05 09:52:17;;;;;;;;;23.33;17.00;;;;;;;;6335560;22;45353;-79
2023/04/05 09:54:42;;;;;;;;;23.25;17.50;;;;;;;;6336119;22;45374;-80
2023/04/05 09:57:09;;;;;;;;;21.33;16.33;;;;;;;;6335775;22;45270;-80
2023/04/05 09:59:34;;;;;;;;;29.25;18.00;;;;;;;;6334675;22;45251;-80
2023/04/05 10:01:59;;;;;;;;;19.00;14.50;;;;;;;;6334754;22;46000;-80
2023/04/05 10:04:25;;;;;;;;;27.33;17.67;;;;;;;;6335202;22;45370;-80
2023/04/05 10:06:51;;;;;;;;;23.75;19.75;;;;;;;;6335247;22;45352;-79
2023/04/05 10:09:18;;;;;;;;;15.00;9.00;;;;;;;;6336102;22;45382;-79
2023/04/05 10:11:44;;;;;;;;;16.75;10.00;;;;;;;;6335233;22;46589;-80
2023/04/05 10:14:09;;;;;;;;;19.00;12.25;;;;;;;;6335462;22;45291;-80
2023/04/05 10:16:50;;;;;;;;;22.00;16.33;;;;;;;;6335537;22;45503;-80
2023/04/05 10:19:23;;;;;;;;;20.00;15.50;;;;;;;;6334641;22;45406;-80
2023/04/05 10:21:49;;;;;;;;;27.50;16.75;;;;;;;;6336050;22;45367;-80
2023/04/05 10:24:28;;;;;;;;;18.50;14.25;;;;;;;;6335177;22;45297;-79
2023/04/05 10:26:58;;;;;;;;;19.25;13.25;;;;;;;;6336093;22;45291;-79
2023/04/05 10:29:31;;;;;;;;;21.25;14.00;;;;;;;;6335405;22;45408;-80
2023/04/05 10:32:16;;;;;;;;;15.75;14.75;;;;;;;;6335883;22;45372;-80
2023/04/05 10:34:47;;;;;;;;;17.75;13.75;;;;;;;;6333821;22;45304;-80
2023/04/05 10:37:32;;;;;;;;;16.00;15.00;;;;;;;;6336489;22;45264;-79
2023/04/05 10:40:00;;;;;;;;;14.50;12.00;;;;;;;;6334592;22;45554;-80
2023/04/05 10:42:26;;;;;;;;;15.25;13.00;;;;;;;;6335621;22;45197;-79
2023/04/05 10:44:54;;;;;;;;;16.50;11.00;;;;;;;;6335830;22;45836;-79
2023/04/05 10:47:22;;;;;;;;;15.50;12.75;;;;;;;;6334763;22;45271;-79
2023/04/05 10:49:48;;;;;;;;;20.25;14.50;;;;;;;;6335477;22;45339;-80
2023/04/05 10:52:15;;;;;;;;;17.75;15.00;;;;;;;;6335122;22;45451;-80
2023/04/05 10:54:41;;;;;;;;;17.00;13.00;;;;;;;;6335979;22;45241;-80
2023/04/05 10:57:07;;;;;;;;;15.25;13.00;;;;;;;;6335928;22;45267;-80
2023/04/05 10:59:33;;;;;;;;;14.00;11.50;;;;;;;;6334790;22;45427;-78
2023/04/05 11:01:59;;;;;;;;;15.00;12.00;;;;;;;;6334433;22;46461;-80
2023/04/05 11:04:25;;;;;;;;;15.50;12.75;;;;;;;;6335112;22;45230;-80
2023/04/05 11:07:22;;;;;;;;;16.33;8.33;;;;;;;;6335801;22;45771;-80
2023/04/05 11:10:10;;;;;;;;;16.25;12.75;;;;;;;;6208462;22;45298;-79
2023/04/05 11:12:44;;;;;;;;;20.50;14.25;;;;;;;;6207653;22;45378;-80
2023/04/05 11:15:24;;;;;;;;;19.00;12.50;;;;;;;;6208313;22;45747;-80
2023/04/05 11:18:00;;;;;;;;;15.00;12.50;;;;;;;;6207980;22;45478;-80
2023/04/05 11:20:25;;;;;;;;;15.50;9.25;;;;;;;;6208146;22;45450;-79
2023/04/05 11:22:53;;;;;;;;;23.00;12.00;;;;;;;;6208030;22;46639;-81
2023/04/05 11:25:21;;;;;;;;;18.50;14.75;;;;;;;;6208601;22;45805;-80
2023/04/05 11:27:59;;;;;;;;;16.00;14.00;;;;;;;;6208598;22;45359;-82
2023/04/05 11:31:02;;;;;;;;;17.25;11.00;;;;;;;;6207555;22;45364;-81
2023/04/05 11:33:46;;;;;;;;;18.25;11.25;;;;;;;;6118021;23;47186;-80
2023/04/05 11:36:11;;;;;;;;;15.00;10.75;;;;;;;;6118487;23;45393;-82
2023/04/05 11:38:37;;;;;;;;;16.00;10.75;;;;;;;;6118420;23;45330;-82
2023/04/05 11:41:06;;;;;;;;;10.75;8.25;;;;;;;;6118979;23;45438;-81
2023/04/05 11:43:33;;;;;;;;;12.75;10.75;;;;;;;;6118117;23;47143;-81
2023/04/05 11:46:00;;;;;;;;;10.25;8.50;;;;;;;;6184257;22;45834;-82
2023/04/05 11:48:26;;;;;;;;;13.00;12.50;;;;;;;;6208431;22;45430;-82
2023/04/05 11:50:52;;;;;;;;;20.33;14.67;;;;;;;;6183035;22;45294;-82
2023/04/05 11:53:18;;;;;;;;;11.75;11.00;;;;;;;;6207799;22;45416;-82
2023/04/05 11:55:47;;;;;;;;;13.25;10.25;;;;;;;;6208473;22;45330;-82
2023/04/05 11:58:20;;;;;;;;;11.75;10.50;;;;;;;;6207577;22;45382;-82
2023/04/05 12:00:46;;;;;;;;;11.00;9.25;;;;;;;;6207769;22;45358;-82
2023/04/05 12:03:14;;;;;;;;;10.25;9.00;;;;;;;;6207678;22;45318;-82
2023/04/05 12:05:52;;;;;;;;;13.75;10.25;;;;;;;;6208500;22;45380;-82
2023/04/05 12:08:18;;;;;;;;;11.50;10.00;;;;;;;;6318075;22;45245;-82
2023/04/05 12:10:51;;;;;;;;;10.75;8.00;;;;;;;;6334925;22;45451;-82
2023/04/05 12:13:23;;;;;;;;;10.75;10.00;;;;;;;;6334558;22;47498;-82
2023/04/05 12:15:49;;;;;;;;;13.00;9.75;;;;;;;;6334215;22;45312;-82
2023/04/05 12:18:14;;;;;;;;;10.00;8.00;;;;;;;;6334795;22;45423;-82
2023/04/05 12:20:40;;;;;;;;;17.00;10.00;;;;;;;;6334503;22;45434;-83
2023/04/05 12:23:05;;;;;;;;;10.00;9.00;;;;;;;;6334860;22;46025;-84
2023/04/05 12:25:31;;;;;;;;;12.50;11.00;;;;;;;;6335174;22;45265;-82
2023/04/05 12:28:02;;;;;;;;;12.50;10.50;;;;;;;;6334631;22;45138;-83
2023/04/05 12:30:35;;;;;;;;;12.25;10.25;;;;;;;;6334071;22;45525;-83
2023/04/05 12:33:06;;;;;;;;;8.75;8.50;;;;;;;;6334668;22;46453;-83
2023/04/05 12:35:33;;;;;;;;;11.50;9.00;;;;;;;;6335167;22;45675;-83
2023/04/05 12:38:00;;;;;;;;;8.00;7.00;;;;;;;;6334735;22;45209;-84
2023/04/05 12:40:26;;;;;;;;;12.25;8.00;;;;;;;;6335170;22;45894;-82
2023/04/05 12:42:51;;;;;;;;;13.25;10.00;;;;;;;;6335454;22;46503;-83
2023/04/05 12:45:17;;;;;;;;;6.33;6.33;;;;;;;;6335787;22;45418;-83
2023/04/05 12:47:49;;;;;;;;;9.00;6.00;;;;;;;;6336094;22;45280;-83
2023/04/05 12:50:16;;;;;;;;;10.00;6.00;;;;;;;;6335703;22;45475;-83
2023/04/05 12:52:51;;;;;;;;;9.00;6.00;;;;;;;;6336412;22;45355;-83
2023/04/05 12:55:16;;;;;;;;;11.25;8.25;;;;;;;;6336411;22;45728;-83
2023/04/05 12:57:41;;;;;;;;;8.75;7.25;;;;;;;;6334305;22;45279;-80
2023/04/05 13:00:07;;;;;;;;;8.00;5.33;;;;;;;;6335530;22;45330;-81
2023/04/05 13:02:32;;;;;;;;;8.00;6.50;;;;;;;;6335228;22;46493;-81
2023/04/05 13:04:58;;;;;;;;;10.00;8.00;;;;;;;;6336280;22;45443;-82
2023/04/05 13:07:23;;;;;;;;;7.00;6.33;;;;;;;;6336412;22;45264;-82
2023/04/05 13:09:48;;;;;;;;;10.33;8.00;;;;;;;;6335781;22;45349;-82
2023/04/05 13:12:13;;;;;;;;;6.67;5.00;;;;;;;;6335717;22;45238;-83
2023/04/05 13:14:38;;;;;;;;;6.33;5.33;;;;;;;;6335751;22;45246;-82
2023/04/05 13:17:04;;;;;;;;;8.33;6.00;;;;;;;;6336187;22;45263;-82
2023/04/05 13:19:29;;;;;;;;;12.67;8.00;;;;;;;;6335767;22;45331;-82
2023/04/05 13:21:54;;;;;;;;;4.67;4.00;;;;;;;;6335667;22;45418;-83
2023/04/05 13:24:19;;;;;;;;;8.67;7.00;;;;;;;;6335701;22;45676;-82
2023/04/05 13:26:44;;;;;;;;;12.25;8.00;;;;;;;;6333840;22;45293;-82
2023/04/05 13:29:10;;;;;;;;;8.67;7.00;;;;;;;;6336036;22;45234;-82
2023/04/05 13:31:35;;;;;;;;;9.00;8.33;;;;;;;;6336183;22;46367;-82
2023/04/05 13:34:00;;;;;;;;;7.75;6.75;;;;;;;;6336180;22;45241;-83
2023/04/05 13:36:26;;;;;;;;;10.33;7.33;;;;;;;;6335958;22;45351;-83
2023/04/05 13:38:51;;;;;;;;;9.25;8.00;;;;;;;;6335439;22;45570;-83
2023/04/05 13:41:16;;;;;;;;;8.67;7.67;;;;;;;;6335544;22;46150;-83
2023/04/05 13:43:41;;;;;;;;;8.00;7.00;;;;;;;;6336482;22;45288;-83
2023/04/05 13:46:06;;;;;;;;;8.33;7.00;;;;;;;;6335521;22;45496;-83
2023/04/05 13:48:31;;;;;;;;;6.00;6.00;;;;;;;;6336227;22;45272;-84
2023/04/05 13:50:57;;;;;;;;;9.00;8.00;;;;;;;;6335550;22;46174;-83
2023/04/05 13:53:22;;;;;;;;;14.33;10.00;;;;;;;;6335552;22;45255;-82
2023/04/05 13:55:47;;;;;;;;;13.00;10.00;;;;;;;;6335265;22;45292;-82
2023/04/05 13:58:13;;;;;;;;;11.00;9.00;;;;;;;;6335622;22;45436;-83
2023/04/05 14:00:39;;;;;;;;;12.00;8.00;;;;;;;;6336125;22;45489;-82
2023/04/05 14:03:04;;;;;;;;;15.00;9.25;;;;;;;;6335949;22;45243;-82
2023/04/05 14:05:29;;;;;;;;;9.00;8.00;;;;;;;;6335360;22;45259;-82
2023/04/05 14:07:55;;;;;;;;;10.67;8.00;;;;;;;;6335504;22;45535;-82
2023/04/05 14:10:20;;;;;;;;;11.00;10.00;;;;;;;;6334470;22;46554;-83
2023/04/05 14:12:45;;;;;;;;;12.75;9.50;;;;;;;;6335531;22;45343;-82
2023/04/05 14:15:10;;;;;;;;;12.00;10.00;;;;;;;;6333859;22;45369;-82
2023/04/05 14:17:36;;;;;;;;;11.33;9.00;;;;;;;;6335350;22;45511;-82
2023/04/05 14:20:01;;;;;;;;;13.67;7.33;;;;;;;;6335972;22;45568;-82